createdAt,value
2023-04-12T00:00:19.502Z,960.91
2023-04-12T00:01:19.474Z,960.90
2023-04-12T00:02:19.630Z,960.87
2023-04-12T00:03:19.647Z,960.88
2023-04-12T00:04:19.483Z,960.87
2023-04-12T00:05:19.538Z,960.90
2023-04-12T00:06:19.393Z,960.86
2023-04-12T00:07:19.424Z,960.82
2023-04-12T00:08:19.406Z,960.89
2023-04-12T00:09:19.366Z,960.81
2023-04-12T00:10:19.350Z,960.83
2023-04-12T00:11:19.369Z,960.79
2023-04-12T00:12:19.393Z,960.78
2023-04-12T00:13:19.342Z,960.74
2023-04-12T00:14:19.345Z,960.68
2023-04-12T00:15:19.312Z,960.67
2023-04-12T00:16:19.421Z,960.61
2023-04-12T00:17:19.435Z,960.61
2023-04-12T00:18:19.290Z,960.62
2023-04-12T00:19:19.623Z,960.61
2023-04-12T00:20:19.240Z,960.60
2023-04-12T00:21:19.237Z,960.61
2023-04-12T00:22:19.241Z,960.55
2023-04-12T00:23:19.236Z,960.54
2023-04-12T00:24:19.230Z,960.48
2023-04-12T00:25:19.209Z,960.54
2023-04-12T00:26:19.174Z,960.52
2023-04-12T00:27:19.190Z,960.54
2023-04-12T00:28:19.176Z,960.58
2023-04-12T00:29:19.154Z,960.49
2023-04-12T00:30:19.171Z,960.52
2023-04-12T00:31:19.155Z,960.47
2023-04-12T00:32:19.178Z,960.48
2023-04-12T00:33:19.105Z,960.50
2023-04-12T00:34:19.114Z,960.51
2023-04-12T00:35:19.091Z,960.48
2023-04-12T00:36:19.120Z,960.50
2023-04-12T00:37:19.051Z,960.47
2023-04-12T00:38:19.050Z,960.38
2023-04-12T00:39:19.057Z,960.33
2023-04-12T00:40:19.020Z,960.34
2023-04-12T00:41:19.027Z,960.30
2023-04-12T00:42:19.038Z,960.30
2023-04-12T00:43:19.110Z,960.33
2023-04-12T00:44:18.977Z,960.38
2023-04-12T00:45:18.985Z,960.33
2023-04-12T00:46:19.016Z,960.35
2023-04-12T00:47:18.976Z,960.39
2023-04-12T00:48:18.978Z,960.24
2023-04-12T00:49:18.930Z,960.31
2023-04-12T00:50:18.901Z,960.32
2023-04-12T00:51:18.958Z,960.30
2023-04-12T00:52:18.892Z,960.29
2023-04-12T00:53:18.913Z,960.24
2023-04-12T00:54:18.862Z,960.26
2023-04-12T00:55:18.907Z,960.29
2023-04-12T00:56:18.841Z,960.28
2023-04-12T00:57:18.831Z,960.25
2023-04-12T00:58:18.857Z,960.26
2023-04-12T00:59:18.868Z,960.28
2023-04-12T01:00:18.805Z,960.24
2023-04-12T01:01:18.909Z,960.20
2023-04-12T01:02:18.867Z,960.17
2023-04-12T01:03:19.086Z,960.14
2023-04-12T01:04:18.795Z,960.15
2023-04-12T01:05:18.736Z,960.13
2023-04-12T01:06:18.886Z,960.11
2023-04-12T01:07:18.729Z,960.09
2023-04-12T01:08:18.741Z,960.05
2023-04-12T01:09:18.710Z,960.05
2023-04-12T01:10:18.740Z,960.07
2023-04-12T01:11:18.716Z,960.03
2023-04-12T01:12:18.679Z,960.04
2023-04-12T01:13:18.664Z,959.97
2023-04-12T01:14:18.647Z,960.02
2023-04-12T01:15:18.638Z,960.01
2023-04-12T01:16:18.707Z,959.99
2023-04-12T01:17:18.642Z,959.98
2023-04-12T01:18:18.586Z,959.93
2023-04-12T01:19:18.616Z,959.98
2023-04-12T01:20:18.590Z,960.00
2023-04-12T01:21:18.604Z,959.97
2023-04-12T01:22:18.610Z,960.00
2023-04-12T01:23:18.533Z,959.97
2023-04-12T01:24:18.526Z,959.99
2023-04-12T01:25:18.550Z,959.97
2023-04-12T01:26:18.552Z,960.03
2023-04-12T01:27:18.522Z,959.99
2023-04-12T01:28:18.518Z,960.03
2023-04-12T01:29:18.474Z,960.00
2023-04-12T01:30:18.492Z,959.98
2023-04-12T01:31:18.499Z,960.01
2023-04-12T01:32:18.460Z,960.02
2023-04-12T01:33:18.455Z,960.02
2023-04-12T01:34:18.417Z,959.99
2023-04-12T01:35:18.427Z,960.03
2023-04-12T01:36:18.406Z,960.03
2023-04-12T01:37:18.393Z,960.04
2023-04-12T01:38:18.378Z,959.99
2023-04-12T01:39:18.397Z,960.01
2023-04-12T01:40:18.339Z,959.96
2023-04-12T01:41:18.357Z,959.94
2023-04-12T01:42:18.347Z,959.96
2023-04-12T01:43:18.357Z,960.00
2023-04-12T01:44:18.335Z,959.99
2023-04-12T01:45:18.295Z,959.94
2023-04-12T01:46:18.476Z,959.96
2023-04-12T01:47:18.372Z,960.03
2023-04-12T01:48:18.261Z,960.02
2023-04-12T01:49:18.268Z,960.01
2023-04-12T01:50:18.267Z,960.02
2023-04-12T01:51:18.219Z,959.97
2023-04-12T01:52:18.211Z,959.99
2023-04-12T01:53:18.227Z,959.96
2023-04-12T01:54:18.202Z,959.95
2023-04-12T01:55:18.206Z,959.98
2023-04-12T01:56:18.244Z,959.96
2023-04-12T01:57:18.152Z,959.96
2023-04-12T01:58:19.900Z,959.97
2023-04-12T01:59:18.189Z,959.97
2023-04-12T02:00:18.144Z,959.98
2023-04-12T02:01:18.242Z,960.00
2023-04-12T02:02:18.211Z,959.95
2023-04-12T02:03:18.396Z,959.93
2023-04-12T02:04:18.147Z,959.96
2023-04-12T02:05:18.077Z,959.95
2023-04-12T02:06:18.086Z,959.88
2023-04-12T02:07:18.085Z,959.92
2023-04-12T02:08:18.042Z,959.92
2023-04-12T02:09:18.051Z,959.92
2023-04-12T02:10:18.862Z,959.93
2023-04-12T02:11:18.018Z,959.90
2023-04-12T02:12:18.031Z,959.83
2023-04-12T02:13:18.108Z,959.87
2023-04-12T02:14:17.969Z,959.85
2023-04-12T02:15:18.003Z,959.88
2023-04-12T02:16:18.005Z,959.85
2023-04-12T02:17:17.953Z,959.82
2023-04-12T02:18:17.973Z,959.88
2023-04-12T02:19:17.908Z,959.90
2023-04-12T02:20:17.924Z,959.84
2023-04-12T02:21:18.003Z,959.83
2023-04-12T02:22:17.942Z,959.84
2023-04-12T02:23:17.890Z,959.84
2023-04-12T02:24:17.885Z,959.83
2023-04-12T02:25:17.846Z,959.78
2023-04-12T02:26:17.916Z,959.78
2023-04-12T02:27:17.853Z,959.81
2023-04-12T02:28:17.827Z,959.78
2023-04-12T02:29:17.839Z,959.73
2023-04-12T02:30:17.797Z,959.75
2023-04-12T02:31:17.928Z,959.79
2023-04-12T02:32:17.801Z,959.78
2023-04-12T02:33:17.782Z,959.73
2023-04-12T02:34:17.827Z,959.69
2023-04-12T02:35:17.841Z,959.70
2023-04-12T02:36:17.724Z,959.76
2023-04-12T02:37:17.815Z,959.75
2023-04-12T02:38:17.715Z,959.80
2023-04-12T02:39:17.716Z,959.77
2023-04-12T02:40:17.701Z,959.71
2023-04-12T02:41:17.690Z,959.68
2023-04-12T02:42:17.648Z,959.71
2023-04-12T02:43:17.666Z,959.68
2023-04-12T02:44:17.662Z,959.65
2023-04-12T02:45:17.644Z,959.67
2023-04-12T02:46:17.652Z,959.64
2023-04-12T02:47:17.630Z,959.66
2023-04-12T02:48:17.590Z,959.70
2023-04-12T02:49:17.605Z,959.69
2023-04-12T02:50:17.577Z,959.67
2023-04-12T02:51:17.572Z,959.70
2023-04-12T02:52:17.569Z,959.69
2023-04-12T02:53:17.533Z,959.70
2023-04-12T02:54:17.577Z,959.67
2023-04-12T02:55:17.535Z,959.73
2023-04-12T02:56:17.514Z,959.72
2023-04-12T02:57:17.504Z,959.67
2023-04-12T02:58:17.465Z,959.69
2023-04-12T02:59:17.468Z,959.66
2023-04-12T03:00:17.480Z,959.62
2023-04-12T03:01:17.449Z,959.68
2023-04-12T03:02:17.480Z,959.64
2023-04-12T03:03:17.718Z,959.63
2023-04-12T03:04:17.555Z,959.61
2023-04-12T03:05:17.898Z,959.62
2023-04-12T03:06:17.376Z,959.61
2023-04-12T03:07:17.387Z,959.62
2023-04-12T03:08:17.400Z,959.58
2023-04-12T03:09:17.367Z,959.56
2023-04-12T03:10:17.353Z,959.56
2023-04-12T03:11:17.337Z,959.59
2023-04-12T03:12:17.357Z,959.58
2023-04-12T03:13:17.318Z,959.57
2023-04-12T03:14:17.313Z,959.52
2023-04-12T03:15:17.325Z,959.59
2023-04-12T03:16:17.480Z,959.56
2023-04-12T03:17:17.256Z,959.54
2023-04-12T03:18:17.252Z,959.53
2023-04-12T03:19:17.254Z,959.51
2023-04-12T03:20:17.258Z,959.46
2023-04-12T03:21:17.277Z,959.45
2023-04-12T03:22:17.269Z,959.43
2023-04-12T03:23:17.191Z,959.41
2023-04-12T03:24:17.225Z,959.43
2023-04-12T03:25:17.197Z,959.40
2023-04-12T03:26:17.163Z,959.42
2023-04-12T03:27:17.144Z,959.34
2023-04-12T03:28:17.156Z,959.38
2023-04-12T03:29:17.150Z,959.39
2023-04-12T03:30:17.108Z,959.38
2023-04-12T03:31:17.170Z,959.44
2023-04-12T03:32:17.105Z,959.41
2023-04-12T03:33:17.089Z,959.35
2023-04-12T03:34:17.158Z,959.36
2023-04-12T03:35:17.099Z,959.40
2023-04-12T03:36:17.057Z,959.36
2023-04-12T03:37:17.114Z,959.35
2023-04-12T03:38:17.107Z,959.33
2023-04-12T03:39:17.003Z,959.35
2023-04-12T03:40:17.029Z,959.37
2023-04-12T03:41:17.003Z,959.36
2023-04-12T03:42:31.820Z,959.32
2023-04-12T03:43:17.956Z,959.35
2023-04-12T03:44:16.991Z,959.31
2023-04-12T03:45:16.946Z,959.32
2023-04-12T03:46:17.012Z,959.32
2023-04-12T03:47:16.956Z,959.27
2023-04-12T03:48:16.930Z,959.30
2023-04-12T03:49:16.900Z,959.25
2023-04-12T03:50:16.894Z,959.24
2023-04-12T03:51:16.974Z,959.21
2023-04-12T03:52:16.870Z,959.21
2023-04-12T03:53:16.880Z,959.19
2023-04-12T03:54:16.877Z,959.19
2023-04-12T03:55:16.823Z,959.22
2023-04-12T03:56:16.815Z,959.19
2023-04-12T03:57:16.832Z,959.15
2023-04-12T03:58:16.804Z,959.16
2023-04-12T03:59:16.800Z,959.12
2023-04-12T04:00:16.839Z,959.13
2023-04-12T04:01:16.758Z,959.09
2023-04-12T04:02:16.876Z,959.07
2023-04-12T04:03:16.965Z,959.03
2023-04-12T04:04:16.843Z,959.02
2023-04-12T04:05:16.862Z,959.03
2023-04-12T04:06:16.736Z,959.02
2023-04-12T04:07:16.711Z,958.98
2023-04-12T04:08:16.691Z,958.95
2023-04-12T04:09:16.712Z,958.87
2023-04-12T04:10:16.687Z,958.92
2023-04-12T04:11:16.685Z,958.93
2023-04-12T04:12:16.683Z,958.93
2023-04-12T04:13:16.642Z,958.98
2023-04-12T04:14:16.632Z,958.93
2023-04-12T04:15:16.620Z,958.88
2023-04-12T04:16:16.655Z,958.89
2023-04-12T04:17:16.603Z,958.86
2023-04-12T04:18:16.584Z,958.82
2023-04-12T04:19:16.603Z,958.79
2023-04-12T04:20:16.556Z,958.76
2023-04-12T04:21:16.567Z,958.75
2023-04-12T04:22:16.544Z,958.80
2023-04-12T04:23:16.540Z,958.81
2023-04-12T04:24:16.507Z,958.81
2023-04-12T04:25:16.510Z,958.85
2023-04-12T04:26:16.493Z,958.81
2023-04-12T04:27:16.487Z,958.80
2023-04-12T04:28:16.502Z,958.83
2023-04-12T04:29:16.471Z,958.77
2023-04-12T04:30:16.461Z,958.82
2023-04-12T04:31:16.513Z,958.80
2023-04-12T04:32:16.446Z,958.81
2023-04-12T04:33:16.433Z,958.73
2023-04-12T04:34:16.469Z,958.77
2023-04-12T04:35:16.500Z,958.77
2023-04-12T04:36:16.388Z,958.80
2023-04-12T04:37:16.366Z,958.73
2023-04-12T04:38:16.376Z,958.73
2023-04-12T04:39:16.378Z,958.76
2023-04-12T04:40:16.366Z,958.76
2023-04-12T04:41:16.324Z,958.74
2023-04-12T04:42:16.335Z,958.71
2023-04-12T04:43:16.304Z,958.72
2023-04-12T04:44:16.318Z,958.68
2023-04-12T04:45:16.330Z,958.66
2023-04-12T04:46:16.339Z,958.67
2023-04-12T04:47:16.256Z,958.62
2023-04-12T04:48:16.244Z,958.66
2023-04-12T04:49:16.240Z,958.63
2023-04-12T04:50:16.260Z,958.59
2023-04-12T04:51:16.218Z,958.62
2023-04-12T04:52:16.200Z,958.55
2023-04-12T04:53:16.445Z,958.54
2023-04-12T04:54:24.917Z,958.59
2023-04-12T04:55:16.189Z,958.57
2023-04-12T04:56:16.161Z,958.60
2023-04-12T04:57:16.157Z,958.61
2023-04-12T04:58:16.186Z,958.56
2023-04-12T04:59:16.129Z,958.55
2023-04-12T05:00:16.118Z,958.54
2023-04-12T05:01:16.109Z,958.53
2023-04-12T05:02:16.267Z,958.50
2023-04-12T05:03:16.266Z,958.47
2023-04-12T05:04:16.084Z,958.43
2023-04-12T05:05:16.072Z,958.50
2023-04-12T05:06:16.060Z,958.45
2023-04-12T05:07:16.029Z,958.43
2023-04-12T05:08:16.073Z,958.48
2023-04-12T05:09:16.007Z,958.44
2023-04-12T05:10:16.012Z,958.42
2023-04-12T05:11:15.995Z,958.41
2023-04-12T05:12:15.987Z,958.43
2023-04-12T05:13:15.973Z,958.40
2023-04-12T05:14:15.975Z,958.35
2023-04-12T05:15:15.948Z,958.33
2023-04-12T05:16:15.966Z,958.34
2023-04-12T05:17:15.977Z,958.40
2023-04-12T05:18:15.934Z,958.39
2023-04-12T05:19:15.906Z,958.37
2023-04-12T05:20:15.898Z,958.35
2023-04-12T05:21:15.876Z,958.37
2023-04-12T05:22:15.882Z,958.33
2023-04-12T05:23:15.851Z,958.35
2023-04-12T05:24:15.873Z,958.34
2023-04-12T05:25:15.847Z,958.33
2023-04-12T05:26:15.858Z,958.30
2023-04-12T05:27:15.856Z,958.29
2023-04-12T05:28:15.828Z,958.25
2023-04-12T05:29:15.790Z,958.25
2023-04-12T05:30:15.828Z,958.19
2023-04-12T05:31:15.856Z,958.24
2023-04-12T05:32:15.755Z,958.20
2023-04-12T05:33:15.765Z,958.19
2023-04-12T05:34:15.725Z,958.16
2023-04-12T05:35:15.731Z,958.16
2023-04-12T05:36:15.740Z,958.18
2023-04-12T05:37:15.719Z,958.17
2023-04-12T05:38:15.686Z,958.18
2023-04-12T05:39:15.672Z,958.17
2023-04-12T05:40:15.667Z,958.13
2023-04-12T05:41:15.682Z,958.07
2023-04-12T05:42:15.671Z,958.11
2023-04-12T05:43:15.665Z,958.07
2023-04-12T05:44:15.636Z,958.09
2023-04-12T05:45:15.605Z,958.05
2023-04-12T05:46:15.667Z,958.03
2023-04-12T05:47:15.629Z,957.98
2023-04-12T05:48:15.596Z,957.98
2023-04-12T05:49:15.595Z,957.97
2023-04-12T05:50:15.553Z,957.91
2023-04-12T05:51:15.578Z,957.87
2023-04-12T05:52:15.585Z,957.89
2023-04-12T05:53:15.560Z,957.88
2023-04-12T05:54:15.522Z,957.81
2023-04-12T05:55:15.540Z,957.82
2023-04-12T05:56:15.486Z,957.75
2023-04-12T05:57:15.479Z,957.82
2023-04-12T05:58:15.536Z,957.77
2023-04-12T05:59:15.475Z,957.72
2023-04-12T06:00:15.488Z,957.74
2023-04-12T06:01:15.460Z,957.74
2023-04-12T06:02:15.459Z,957.74
2023-04-12T06:03:15.509Z,957.74
2023-04-12T06:04:15.600Z,957.76
2023-04-12T06:05:15.457Z,957.69
2023-04-12T06:06:15.382Z,957.74
2023-04-12T06:07:15.363Z,957.77
2023-04-12T06:08:15.388Z,957.75
2023-04-12T06:09:15.364Z,957.66
2023-04-12T06:10:15.345Z,957.60
2023-04-12T06:11:15.349Z,957.65
2023-04-12T06:12:15.309Z,957.61
2023-04-12T06:13:15.326Z,957.58
2023-04-12T06:14:15.365Z,957.59
2023-04-12T06:15:15.281Z,957.60
2023-04-12T06:16:15.398Z,957.61
2023-04-12T06:17:15.255Z,957.58
2023-04-12T06:18:15.263Z,957.60
2023-04-12T06:19:15.232Z,957.65
2023-04-12T06:20:15.231Z,957.63
2023-04-12T06:21:15.221Z,957.62
2023-04-12T06:22:15.210Z,957.62
2023-04-12T06:23:15.227Z,957.57
2023-04-12T06:24:15.199Z,957.61
2023-04-12T06:25:15.167Z,957.58
2023-04-12T06:26:16.664Z,957.61
2023-04-12T06:27:15.156Z,957.64
2023-04-12T06:28:15.164Z,957.59
2023-04-12T06:29:15.170Z,957.57
2023-04-12T06:30:15.151Z,957.57
2023-04-12T06:31:15.149Z,957.55
2023-04-12T06:32:15.097Z,957.55
2023-04-12T06:33:15.092Z,957.57
2023-04-12T06:34:15.094Z,957.55
2023-04-12T06:35:15.125Z,957.46
2023-04-12T06:36:15.099Z,957.51
2023-04-12T06:37:15.039Z,957.44
2023-04-12T06:38:15.023Z,957.41
2023-04-12T06:39:15.026Z,957.41
2023-04-12T06:40:15.063Z,957.37
2023-04-12T06:41:14.991Z,957.43
2023-04-12T06:42:15.070Z,957.41
2023-04-12T06:43:14.973Z,957.42
2023-04-12T06:44:14.960Z,957.41
2023-04-12T06:45:14.960Z,957.36
2023-04-12T06:46:14.986Z,957.39
2023-04-12T06:47:14.929Z,957.35
2023-04-12T06:48:14.936Z,957.36
2023-04-12T06:49:14.892Z,957.34
2023-04-12T06:50:14.920Z,957.42
2023-04-12T06:51:14.884Z,957.39
2023-04-12T06:52:14.871Z,957.38
2023-04-12T06:53:14.871Z,957.31
2023-04-12T06:54:14.892Z,957.36
2023-04-12T06:55:14.870Z,957.31
2023-04-12T06:56:16.641Z,957.28
2023-04-12T06:57:14.845Z,957.30
2023-04-12T06:58:14.808Z,957.29
2023-04-12T06:59:14.789Z,957.26
2023-04-12T07:00:14.764Z,957.23
2023-04-12T07:01:14.813Z,957.31
2023-04-12T07:02:14.863Z,957.33
2023-04-12T07:03:14.795Z,957.28
2023-04-12T07:04:14.883Z,957.33
2023-04-12T07:05:14.711Z,957.24
2023-04-12T07:06:25.005Z,957.25
2023-04-12T07:07:15.740Z,957.20
2023-04-12T07:08:14.677Z,957.20
2023-04-12T07:09:14.668Z,957.22
2023-04-12T07:10:14.685Z,957.22
2023-04-12T07:11:20.565Z,957.15
2023-04-12T07:12:15.648Z,957.20
2023-04-12T07:13:14.671Z,957.18
2023-04-12T07:14:14.610Z,957.15
2023-04-12T07:15:14.599Z,957.08
2023-04-12T07:16:14.629Z,957.12
2023-04-12T07:17:14.609Z,957.05
2023-04-12T07:18:14.599Z,957.03
2023-04-12T07:19:14.588Z,957.11
2023-04-12T07:20:14.543Z,957.16
2023-04-12T07:21:14.722Z,957.07
2023-04-12T07:22:14.524Z,957.08
2023-04-12T07:23:14.569Z,957.10
2023-04-12T07:24:14.522Z,957.06
2023-04-12T07:25:14.493Z,957.03
2023-04-12T07:26:14.475Z,957.05
2023-04-12T07:27:14.466Z,956.99
2023-04-12T07:28:14.474Z,957.05
2023-04-12T07:29:14.515Z,956.97
2023-04-12T07:30:14.457Z,957.03
2023-04-12T07:31:14.424Z,957.04
2023-04-12T07:32:14.415Z,956.99
2023-04-12T07:33:19.694Z,956.92
2023-04-12T07:34:15.710Z,956.88
2023-04-12T07:35:14.394Z,956.82
2023-04-12T07:36:14.456Z,956.83
2023-04-12T07:37:14.356Z,956.78
2023-04-12T07:38:16.552Z,956.78
2023-04-12T07:39:14.359Z,956.78
2023-04-12T07:40:14.365Z,956.77
2023-04-12T07:41:14.329Z,956.79
2023-04-12T07:42:14.332Z,956.78
2023-04-12T07:43:14.290Z,956.73
2023-04-12T07:44:14.279Z,956.71
2023-04-12T07:45:14.296Z,956.68
2023-04-12T07:46:14.277Z,956.60
2023-04-12T07:47:14.271Z,956.58
2023-04-12T07:48:14.285Z,956.56
2023-04-12T07:49:14.232Z,956.67
2023-04-12T07:50:14.231Z,956.60
2023-04-12T07:51:14.231Z,956.63
2023-04-12T07:52:14.202Z,956.62
2023-04-12T07:53:14.203Z,956.63
2023-04-12T07:54:14.254Z,956.55
2023-04-12T07:55:14.157Z,956.62
2023-04-12T07:56:14.162Z,956.57
2023-04-12T07:57:14.136Z,956.59
2023-04-12T07:58:14.151Z,956.64
2023-04-12T07:59:14.152Z,956.57
2023-04-12T08:00:14.115Z,956.55
2023-04-12T08:01:14.103Z,956.52
2023-04-12T08:02:14.170Z,956.57
2023-04-12T08:03:14.281Z,956.52
2023-04-12T08:04:14.181Z,956.51
2023-04-12T08:05:14.129Z,956.53
2023-04-12T08:06:14.125Z,956.52
2023-04-12T08:07:14.023Z,956.52
2023-04-12T08:08:14.043Z,956.51
2023-04-12T08:09:14.048Z,956.52
2023-04-12T08:10:14.019Z,956.55
2023-04-12T08:11:14.027Z,956.58
2023-04-12T08:12:13.979Z,956.52
2023-04-12T08:13:13.970Z,956.52
2023-04-12T08:14:13.999Z,956.54
2023-04-12T08:15:13.979Z,956.46
2023-04-12T08:16:13.942Z,956.45
2023-04-12T08:17:13.914Z,956.47
2023-04-12T08:18:13.969Z,956.49
2023-04-12T08:19:13.896Z,956.44
2023-04-12T08:20:13.901Z,956.49
2023-04-12T08:21:13.934Z,956.52
2023-04-12T08:22:13.927Z,956.42
2023-04-12T08:23:13.853Z,956.42
2023-04-12T08:24:13.868Z,956.40
2023-04-12T08:25:13.859Z,956.40
2023-04-12T08:26:13.841Z,956.41
2023-04-12T08:27:13.868Z,956.33
2023-04-12T08:28:13.799Z,956.26
2023-04-12T08:29:13.789Z,956.30
2023-04-12T08:30:13.822Z,956.28
2023-04-12T08:31:13.783Z,956.24
2023-04-12T08:32:13.785Z,956.25
2023-04-12T08:33:13.792Z,956.14
2023-04-12T08:34:13.742Z,956.13
2023-04-12T08:35:13.723Z,956.08
2023-04-12T08:36:13.749Z,956.14
2023-04-12T08:37:13.712Z,956.07
2023-04-12T08:38:13.731Z,956.06
2023-04-12T08:39:13.664Z,956.05
2023-04-12T08:40:13.654Z,956.03
2023-04-12T08:41:14.566Z,956.05
2023-04-12T08:42:13.655Z,956.02
2023-04-12T08:43:13.647Z,955.97
2023-04-12T08:44:13.607Z,956.00
2023-04-12T08:45:13.600Z,955.96
2023-04-12T08:46:13.784Z,955.97
2023-04-12T08:47:13.594Z,955.92
2023-04-12T08:48:13.571Z,955.95
2023-04-12T08:49:13.590Z,955.92
2023-04-12T08:50:13.568Z,955.90
2023-04-12T08:51:13.535Z,955.94
2023-04-12T08:52:13.555Z,955.93
2023-04-12T08:53:13.543Z,955.92
2023-04-12T08:54:13.566Z,955.85
2023-04-12T08:55:13.544Z,955.88
2023-04-12T08:56:13.478Z,955.87
2023-04-12T08:57:13.463Z,955.82
2023-04-12T08:58:13.482Z,955.81
2023-04-12T08:59:13.488Z,955.79
2023-04-12T09:00:13.454Z,955.72
2023-04-12T09:01:13.470Z,955.72
2023-04-12T09:02:13.519Z,955.72
2023-04-12T09:03:13.851Z,955.67
2023-04-12T09:04:13.540Z,955.70
2023-04-12T09:05:13.434Z,955.66
2023-04-12T09:06:13.457Z,955.61
2023-04-12T09:07:13.405Z,955.63
2023-04-12T09:08:13.341Z,955.65
2023-04-12T09:09:13.361Z,955.57
2023-04-12T09:10:13.397Z,955.60
2023-04-12T09:11:13.345Z,955.65
2023-04-12T09:12:13.335Z,955.61
2023-04-12T09:13:13.356Z,955.57
2023-04-12T09:14:13.286Z,955.60
2023-04-12T09:15:13.684Z,955.56
2023-04-12T09:16:13.269Z,955.50
2023-04-12T09:17:13.255Z,955.51
2023-04-12T09:18:14.532Z,955.46
2023-04-12T09:19:13.310Z,955.39
2023-04-12T09:20:13.259Z,955.31
2023-04-12T09:21:13.215Z,955.22
2023-04-12T09:22:13.188Z,955.22
2023-04-12T09:23:13.188Z,955.27
2023-04-12T09:24:14.767Z,955.18
2023-04-12T09:25:13.171Z,955.19
2023-04-12T09:26:13.242Z,955.23
2023-04-12T09:27:13.133Z,955.20
2023-04-12T09:28:13.128Z,955.19
2023-04-12T09:29:13.140Z,955.23
2023-04-12T09:30:13.094Z,955.26
2023-04-12T09:31:13.136Z,955.26
2023-04-12T09:32:13.221Z,955.26
2023-04-12T09:33:13.099Z,955.31
2023-04-12T09:34:13.089Z,955.29
2023-04-12T09:35:13.043Z,955.29
2023-04-12T09:36:13.067Z,955.22
2023-04-12T09:37:13.026Z,955.24
2023-04-12T09:38:13.027Z,955.18
2023-04-12T09:39:13.039Z,955.20
2023-04-12T09:40:13.044Z,955.13
2023-04-12T09:41:12.988Z,955.13
2023-04-12T09:42:31.793Z,955.13
2023-04-12T09:43:13.954Z,955.15
2023-04-12T09:44:12.964Z,955.09
2023-04-12T09:45:12.941Z,955.12
2023-04-12T09:46:13.053Z,955.00
2023-04-12T09:47:12.909Z,955.10
2023-04-12T09:48:12.934Z,955.03
2023-04-12T09:49:12.890Z,955.08
2023-04-12T09:50:12.880Z,955.05
2023-04-12T09:51:12.920Z,955.07
2023-04-12T09:52:12.887Z,955.04
2023-04-12T09:53:12.872Z,955.02
2023-04-12T09:54:12.864Z,954.91
2023-04-12T09:55:12.874Z,954.87
2023-04-12T09:56:12.814Z,954.87
2023-04-12T09:57:12.832Z,954.87
2023-04-12T09:58:12.817Z,954.82
2023-04-12T09:59:12.806Z,954.81
2023-04-12T10:00:12.874Z,954.82
2023-04-12T10:01:13.380Z,954.78
2023-04-12T10:02:12.913Z,954.70
2023-04-12T10:03:12.982Z,954.69
2023-04-12T10:04:13.359Z,954.67
2023-04-12T10:05:12.814Z,954.75
2023-04-12T10:06:12.728Z,954.60
2023-04-12T10:07:14.964Z,954.62
2023-04-12T10:08:12.696Z,954.60
2023-04-12T10:09:12.663Z,954.54
2023-04-12T10:10:12.684Z,954.53
2023-04-12T10:11:12.631Z,954.52
2023-04-12T10:12:12.673Z,954.51
2023-04-12T10:13:12.645Z,954.45
2023-04-12T10:14:14.391Z,954.43
2023-04-12T10:15:12.586Z,954.41
2023-04-12T10:16:12.640Z,954.51
2023-04-12T10:17:12.603Z,954.48
2023-04-12T10:18:12.667Z,954.48
2023-04-12T10:19:12.578Z,954.40
2023-04-12T10:20:12.532Z,954.40
2023-04-12T10:21:12.535Z,954.45
2023-04-12T10:22:12.536Z,954.39
2023-04-12T10:23:12.501Z,954.39
2023-04-12T10:24:12.539Z,954.37
2023-04-12T10:25:12.520Z,954.43
2023-04-12T10:26:12.470Z,954.34
2023-04-12T10:27:12.456Z,954.29
2023-04-12T10:28:12.462Z,954.35
2023-04-12T10:29:12.492Z,954.31
2023-04-12T10:30:12.451Z,954.30
2023-04-12T10:31:12.503Z,954.30
2023-04-12T10:32:12.489Z,954.33
2023-04-12T10:33:12.464Z,954.30
2023-04-12T10:34:12.386Z,954.28
2023-04-12T10:35:12.433Z,954.37
2023-04-12T10:36:12.420Z,954.33
2023-04-12T10:37:12.409Z,954.34
2023-04-12T10:38:12.386Z,954.24
2023-04-12T10:39:12.325Z,954.24
2023-04-12T10:40:12.380Z,954.17
2023-04-12T10:41:12.352Z,954.17
2023-04-12T10:42:12.329Z,954.11
2023-04-12T10:43:12.281Z,954.03
2023-04-12T10:44:12.286Z,953.96
2023-04-12T10:45:12.272Z,954.05
2023-04-12T10:46:12.336Z,954.01
2023-04-12T10:47:12.379Z,954.00
2023-04-12T10:48:12.307Z,954.04
2023-04-12T10:49:12.235Z,954.05
2023-04-12T10:50:12.206Z,954.07
2023-04-12T10:51:12.219Z,954.05
2023-04-12T10:52:12.264Z,954.05
2023-04-12T10:53:12.232Z,953.97
2023-04-12T10:54:12.219Z,953.93
2023-04-12T10:55:12.186Z,953.95
2023-04-12T10:56:12.177Z,953.90
2023-04-12T10:57:12.160Z,953.97
2023-04-12T10:58:12.137Z,953.99
2023-04-12T10:59:12.177Z,953.96
2023-04-12T11:00:12.127Z,953.93
2023-04-12T11:01:12.137Z,953.78
2023-04-12T11:02:12.519Z,953.75
2023-04-12T11:03:12.902Z,953.80
2023-04-12T11:04:12.211Z,953.76
2023-04-12T11:05:12.179Z,953.69
2023-04-12T11:06:26.446Z,953.67
2023-04-12T11:07:13.017Z,953.70
2023-04-12T11:08:12.032Z,953.75
2023-04-12T11:09:12.023Z,953.74
2023-04-12T11:10:12.017Z,953.69
2023-04-12T11:11:12.009Z,953.68
2023-04-12T11:12:11.978Z,953.70
2023-04-12T11:13:11.949Z,953.72
2023-04-12T11:14:11.943Z,953.75
2023-04-12T11:15:11.944Z,953.67
2023-04-12T11:16:11.980Z,953.65
2023-04-12T11:17:11.988Z,953.63
2023-04-12T11:18:11.999Z,953.63
2023-04-12T11:19:11.887Z,953.66
2023-04-12T11:20:11.897Z,953.71
2023-04-12T11:21:11.881Z,953.69
2023-04-12T11:22:11.867Z,953.66
2023-04-12T11:23:11.869Z,953.64
2023-04-12T11:24:11.821Z,953.56
2023-04-12T11:25:11.835Z,953.59
2023-04-12T11:26:11.931Z,953.58
2023-04-12T11:27:11.815Z,953.59
2023-04-12T11:28:27.376Z,953.63
2023-04-12T11:29:12.766Z,953.64
2023-04-12T11:30:12.030Z,953.70
2023-04-12T11:31:11.765Z,953.61
2023-04-12T11:32:11.767Z,953.63
2023-04-12T11:33:11.786Z,953.64
2023-04-12T11:34:13.861Z,953.58
2023-04-12T11:35:11.700Z,953.49
2023-04-12T11:36:11.730Z,953.47
2023-04-12T11:37:11.707Z,953.43
2023-04-12T11:38:11.679Z,953.46
2023-04-12T11:39:11.706Z,953.32
2023-04-12T11:40:11.775Z,953.25
2023-04-12T11:41:11.646Z,953.29
2023-04-12T11:42:11.653Z,953.35
2023-04-12T11:43:11.614Z,953.43
2023-04-12T11:44:11.620Z,953.51
2023-04-12T11:45:17.180Z,953.50
2023-04-12T11:46:12.619Z,953.60
2023-04-12T11:47:11.699Z,953.69
2023-04-12T11:48:11.635Z,953.63
2023-04-12T11:49:11.556Z,953.60
2023-04-12T11:50:11.880Z,953.55
2023-04-12T11:51:11.831Z,953.45
2023-04-12T11:52:11.519Z,953.40
2023-04-12T11:53:11.532Z,953.41
2023-04-12T11:54:11.528Z,953.30
2023-04-12T11:55:11.516Z,953.27
2023-04-12T11:56:11.495Z,953.28
2023-04-12T11:57:11.448Z,953.31
2023-04-12T11:58:11.476Z,953.35
2023-04-12T11:59:11.445Z,953.36
2023-04-12T12:00:11.443Z,953.39
2023-04-12T12:01:11.432Z,953.43
2023-04-12T12:02:22.421Z,953.38
2023-04-12T12:03:12.555Z,953.32
2023-04-12T12:04:11.498Z,953.35
2023-04-12T12:05:11.799Z,953.32
2023-04-12T12:06:11.672Z,953.34
2023-04-12T12:07:11.528Z,953.30
2023-04-12T12:08:11.375Z,953.28
2023-04-12T12:09:11.371Z,953.34
2023-04-12T12:10:11.390Z,953.30
2023-04-12T12:11:11.333Z,953.27
2023-04-12T12:12:11.317Z,953.30
2023-04-12T12:13:11.305Z,953.32
2023-04-12T12:14:11.286Z,953.35
2023-04-12T12:15:11.248Z,953.38
2023-04-12T12:16:11.294Z,953.36
2023-04-12T12:17:11.235Z,953.38
2023-04-12T12:18:11.282Z,953.42
2023-04-12T12:19:11.235Z,953.40
2023-04-12T12:20:11.196Z,953.39
2023-04-12T12:21:11.182Z,953.35
2023-04-12T12:22:11.193Z,953.37
2023-04-12T12:23:11.184Z,953.34
2023-04-12T12:24:11.184Z,953.33
2023-04-12T12:25:11.204Z,953.37
2023-04-12T12:26:19.011Z,953.29
2023-04-12T12:27:12.164Z,953.29
2023-04-12T12:28:11.232Z,953.20